createdAt,value
2022-08-26T00:05:40.188Z,1.60
2022-08-26T00:09:23.774Z,2.47
2022-08-26T00:13:06.975Z,1.92
2022-08-26T00:16:50.514Z,2.38
2022-08-26T00:20:34.602Z,2.00
2022-08-26T00:24:18.346Z,2.10
2022-08-26T00:28:00.763Z,2.63
2022-08-26T00:32:38.819Z,2.20
2022-08-26T00:36:21.419Z,2.03
2022-08-26T00:40:06.828Z,2.00
2022-08-26T00:43:48.634Z,2.45
2022-08-26T00:47:35.999Z,1.73
2022-08-26T00:51:24.967Z,1.90
2022-08-26T00:55:23.652Z,2.20
2022-08-26T00:59:10.867Z,2.58
2022-08-26T01:02:53.531Z,2.55
2022-08-26T01:06:35.366Z,2.45
2022-08-26T01:10:23.127Z,2.28
2022-08-26T01:14:07.036Z,2.05
2022-08-26T01:17:49.807Z,1.73
2022-08-26T01:21:58.295Z,1.90
2022-08-26T01:25:43.839Z,2.33
2022-08-26T01:29:28.394Z,1.75
2022-08-26T01:33:12.994Z,2.03
2022-08-26T01:37:03.398Z,2.20
2022-08-26T01:40:48.898Z,1.90
2022-08-26T01:44:36.479Z,2.10
2022-08-26T01:48:21.294Z,1.95
2022-08-26T01:52:28.106Z,1.67
2022-08-26T01:56:10.148Z,2.38
2022-08-26T02:00:13.606Z,1.85
2022-08-26T02:04:28.625Z,2.38
2022-08-26T02:08:11.249Z,2.10
2022-08-26T02:11:54.306Z,1.63
2022-08-26T02:15:36.831Z,2.05
2022-08-26T02:19:41.728Z,2.10
2022-08-26T02:23:24.030Z,2.55
2022-08-26T02:27:06.429Z,1.80
2022-08-26T02:31:10.196Z,2.35
2022-08-26T02:38:34.223Z,1.90
2022-08-26T02:42:17.051Z,1.70
2022-08-26T02:46:01.623Z,2.00
2022-08-26T02:49:47.306Z,2.05
2022-08-26T02:53:32.066Z,2.00
2022-08-26T02:57:17.891Z,1.70
2022-08-26T03:01:24.919Z,1.70
2022-08-26T03:05:07.468Z,2.28
2022-08-26T03:09:14.028Z,2.43
2022-08-26T03:13:00.797Z,1.88
2022-08-26T03:16:48.608Z,1.98
2022-08-26T03:20:49.443Z,1.83
2022-08-26T03:24:31.464Z,1.88
2022-08-26T03:28:13.506Z,1.73
2022-08-26T03:31:55.526Z,2.47
2022-08-26T03:35:37.723Z,2.45
2022-08-26T03:39:22.563Z,2.40
2022-08-26T03:43:05.582Z,2.83
2022-08-26T03:46:47.567Z,2.05
2022-08-26T03:50:34.314Z,2.95
2022-08-26T03:54:17.578Z,2.60
2022-08-26T03:57:59.750Z,2.88
2022-08-26T04:01:43.805Z,2.10
2022-08-26T04:05:25.639Z,2.33
2022-08-26T04:09:10.519Z,2.28
2022-08-26T04:12:52.326Z,1.95
2022-08-26T04:16:34.293Z,1.90
2022-08-26T04:20:18.356Z,2.00
2022-08-26T04:24:00.190Z,1.88
2022-08-26T04:27:45.425Z,2.10
2022-08-26T04:31:33.838Z,2.20
2022-08-26T04:35:15.757Z,2.30
2022-08-26T04:39:01.448Z,2.90
2022-08-26T04:42:43.494Z,2.47
2022-08-26T04:46:25.579Z,2.58
2022-08-26T04:51:03.848Z,2.65
2022-08-26T04:54:47.210Z,2.70
2022-08-26T04:58:29.712Z,2.38
2022-08-26T05:03:10.343Z,2.72
2022-08-26T05:06:54.064Z,2.58
2022-08-26T05:10:44.077Z,2.05
2022-08-26T05:14:25.862Z,2.53
2022-08-26T05:18:07.842Z,2.20
2022-08-26T05:21:51.046Z,2.35
2022-08-26T05:25:36.282Z,2.40
2022-08-26T05:29:57.965Z,2.30
2022-08-26T05:33:41.322Z,2.28
2022-08-26T05:37:23.346Z,2.60
2022-08-26T05:41:14.410Z,2.42
2022-08-26T05:44:58.811Z,2.08
2022-08-26T05:48:40.737Z,2.40
2022-08-26T05:52:26.391Z,2.40
2022-08-26T05:56:09.086Z,2.65
2022-08-26T05:59:53.723Z,2.20
2022-08-26T06:03:37.356Z,2.30
2022-08-26T06:07:39.085Z,2.67
2022-08-26T06:11:43.987Z,2.63
2022-08-26T06:15:26.067Z,2.67
2022-08-26T06:19:32.896Z,2.38
2022-08-26T06:23:36.086Z,2.03
2022-08-26T06:27:18.231Z,2.17
2022-08-26T06:31:22.796Z,2.50
2022-08-26T06:35:05.426Z,2.20
2022-08-26T06:38:50.705Z,2.55
2022-08-26T06:42:33.146Z,3.88
2022-08-26T06:46:19.864Z,3.00
2022-08-26T06:50:02.997Z,2.78
2022-08-26T06:53:46.863Z,3.78
2022-08-26T06:57:28.678Z,3.60
2022-08-26T07:01:36.909Z,2.63
2022-08-26T07:05:22.635Z,2.88
2022-08-26T07:09:09.836Z,3.80
2022-08-26T07:12:52.011Z,3.08
2022-08-26T07:16:35.778Z,3.22
2022-08-26T07:20:19.166Z,2.27
2022-08-26T07:24:01.741Z,2.85
2022-08-26T07:27:43.575Z,3.72
2022-08-26T07:31:45.587Z,2.58
2022-08-26T07:35:27.371Z,2.63
2022-08-26T07:39:31.540Z,2.58
2022-08-26T07:43:14.611Z,2.22
2022-08-26T07:46:56.893Z,1.85
2022-08-26T07:51:16.629Z,2.15
2022-08-26T07:54:59.810Z,1.40
2022-08-26T07:59:00.461Z,1.58
2022-08-26T08:02:44.786Z,1.13
2022-08-26T08:10:15.626Z,1.48
2022-08-26T08:13:58.353Z,1.00
2022-08-26T08:17:46.255Z,0.90
2022-08-26T08:22:28.738Z,1.10
2022-08-26T08:26:10.897Z,1.02
2022-08-26T08:30:49.339Z,1.23
2022-08-26T08:34:31.641Z,1.10
2022-08-26T08:38:13.617Z,1.60
2022-08-26T08:41:58.628Z,1.40
2022-08-26T08:45:49.715Z,1.27
2022-08-26T08:49:32.891Z,2.13
2022-08-26T08:53:38.473Z,1.20
2022-08-26T08:57:41.046Z,1.70
2022-08-26T09:01:35.294Z,1.30
2022-08-26T09:05:22.446Z,1.80
2022-08-26T09:09:31.129Z,1.10
2022-08-26T09:13:17.031Z,1.30
2022-08-26T09:17:45.633Z,1.20
2022-08-26T09:21:29.877Z,1.02
2022-08-26T09:25:13.208Z,0.80
2022-08-26T09:29:04.176Z,1.10
2022-08-26T09:32:57.958Z,1.20
2022-08-26T09:36:52.181Z,2.10
2022-08-26T09:40:59.374Z,1.00
2022-08-26T09:45:01.960Z,1.10
2022-08-26T09:48:43.813Z,1.65
2022-08-26T09:52:27.479Z,1.17
2022-08-26T09:56:20.754Z,0.93
2022-08-26T10:00:31.033Z,1.60
2022-08-26T10:04:14.605Z,1.52
2022-08-26T10:07:56.461Z,1.35
2022-08-26T10:11:47.816Z,1.20
2022-08-26T10:15:36.319Z,1.20
2022-08-26T10:19:25.335Z,1.50
2022-08-26T10:23:25.454Z,1.30
2022-08-26T10:28:02.337Z,1.50
2022-08-26T10:31:49.158Z,1.63
2022-08-26T10:35:34.735Z,1.23
2022-08-26T10:39:35.388Z,1.40
2022-08-26T10:43:23.614Z,2.05
2022-08-26T10:47:16.462Z,1.50
2022-08-26T10:51:00.245Z,1.52
2022-08-26T10:54:46.756Z,1.20
2022-08-26T10:58:53.397Z,1.20
2022-08-26T11:02:47.074Z,1.30
2022-08-26T11:06:29.750Z,1.35
2022-08-26T11:10:20.842Z,1.33
2022-08-26T11:14:04.625Z,1.35
2022-08-26T11:17:46.436Z,1.30
2022-08-26T11:22:14.462Z,1.40
2022-08-26T11:25:56.204Z,1.20
2022-08-26T11:29:59.368Z,0.93
2022-08-26T11:33:48.578Z,1.20
2022-08-26T11:37:37.616Z,1.33
2022-08-26T11:41:29.069Z,1.17
2022-08-26T11:45:19.705Z,1.35
2022-08-26T11:49:02.591Z,1.75
2022-08-26T11:53:06.063Z,1.00
2022-08-26T11:56:49.988Z,1.10
2022-08-26T12:00:36.016Z,1.00
2022-08-26T12:04:34.237Z,0.80
2022-08-26T12:08:18.247Z,0.82
2022-08-26T12:12:21.788Z,1.35
2022-08-26T12:19:46.905Z,1.08
2022-08-26T12:23:46.814Z,1.20
2022-08-26T12:27:30.090Z,1.00
2022-08-26T12:34:56.705Z,0.73
2022-08-26T12:38:40.380Z,0.70
2022-08-26T12:42:41.956Z,1.20
2022-08-26T12:46:25.780Z,0.70
2022-08-26T12:50:18.724Z,0.82
2022-08-26T12:54:00.566Z,1.58
2022-08-26T12:57:42.349Z,0.93
2022-08-26T13:01:25.229Z,0.63
2022-08-26T13:05:07.208Z,0.90
2022-08-26T13:09:07.742Z,1.40
2022-08-26T13:12:49.678Z,0.90
2022-08-26T13:16:31.978Z,1.00
2022-08-26T13:20:32.827Z,0.83
2022-08-26T13:24:21.988Z,0.93
2022-08-26T13:28:03.786Z,1.30
2022-08-26T13:32:05.020Z,1.00
2022-08-26T13:35:46.866Z,1.08
2022-08-26T13:39:28.692Z,1.15
2022-08-26T13:43:11.121Z,0.70
2022-08-26T13:46:52.877Z,0.80
2022-08-26T13:50:35.174Z,0.95
2022-08-26T13:54:16.935Z,1.17
2022-08-26T13:57:58.878Z,0.85
2022-08-26T14:01:40.754Z,1.27
2022-08-26T14:05:22.554Z,0.90
2022-08-26T14:09:04.547Z,1.02
2022-08-26T14:12:46.343Z,0.95
2022-08-26T14:16:33.224Z,0.98
2022-08-26T14:20:25.393Z,0.82
2022-08-26T14:24:07.229Z,0.60
2022-08-26T14:27:49.618Z,0.93
2022-08-26T14:31:31.818Z,0.93
2022-08-26T14:35:16.550Z,0.80
2022-08-26T14:39:03.766Z,0.77
2022-08-26T14:42:53.829Z,1.10
2022-08-26T14:46:48.577Z,1.52
2022-08-26T14:50:30.714Z,1.00
2022-08-26T14:54:13.183Z,1.63
2022-08-26T14:57:54.979Z,0.93
2022-08-26T15:01:36.994Z,1.30
2022-08-26T15:05:18.834Z,0.90
2022-08-26T15:09:01.891Z,1.45
2022-08-26T15:12:44.638Z,1.48
2022-08-26T15:16:27.596Z,0.95
2022-08-26T15:20:10.185Z,1.42
2022-08-26T15:23:52.505Z,1.38
2022-08-26T15:27:34.291Z,1.27
2022-08-26T15:31:16.132Z,1.45
2022-08-26T15:34:57.935Z,0.90
2022-08-26T15:38:41.494Z,1.27
2022-08-26T15:42:23.477Z,1.40
2022-08-26T15:46:05.425Z,1.00
2022-08-26T15:49:47.322Z,1.03
2022-08-26T15:53:31.324Z,0.93
2022-08-26T15:57:15.311Z,1.08
2022-08-26T16:00:59.820Z,0.95
2022-08-26T16:04:41.862Z,0.70
2022-08-26T16:08:25.421Z,0.70
2022-08-26T16:12:11.774Z,0.57
2022-08-26T16:15:55.710Z,0.70
2022-08-26T16:19:37.546Z,0.80
2022-08-26T16:23:19.324Z,1.15
2022-08-26T16:27:01.074Z,0.70
2022-08-26T16:30:43.337Z,0.88
2022-08-26T16:34:25.156Z,0.60
2022-08-26T16:38:07.084Z,0.70
2022-08-26T16:41:48.914Z,0.85
2022-08-26T16:45:30.779Z,1.10
2022-08-26T16:49:13.690Z,1.10
2022-08-26T16:52:55.795Z,0.60
2022-08-26T16:56:37.967Z,0.80
2022-08-26T17:00:28.052Z,0.50
2022-08-26T17:04:09.800Z,0.88
2022-08-26T17:07:55.326Z,1.02
2022-08-26T17:11:37.404Z,0.52
2022-08-26T17:15:19.296Z,0.95
2022-08-26T17:19:01.490Z,0.90
2022-08-26T17:22:45.751Z,0.80
2022-08-26T17:26:27.965Z,0.60
2022-08-26T17:30:10.779Z,0.80
2022-08-26T17:33:53.524Z,0.80
2022-08-26T17:37:35.942Z,1.23
2022-08-26T17:41:20.683Z,0.80
2022-08-26T17:45:02.426Z,1.02
2022-08-26T17:49:03.746Z,0.60
2022-08-26T17:52:46.672Z,1.00
2022-08-26T17:56:28.946Z,1.88
2022-08-26T18:00:20.629Z,0.90
2022-08-26T18:04:02.684Z,1.00
2022-08-26T18:07:44.871Z,1.53
2022-08-26T18:11:28.354Z,1.08
2022-08-26T18:15:10.776Z,1.10
2022-08-26T18:19:12.854Z,1.27
2022-08-26T18:22:54.664Z,1.70
2022-08-26T18:26:38.758Z,1.65
2022-08-26T18:30:41.513Z,1.50
2022-08-26T18:34:23.301Z,1.88
2022-08-26T18:38:14.198Z,1.70
2022-08-26T18:41:57.519Z,1.27
2022-08-26T18:45:39.338Z,1.58
2022-08-26T18:50:17.374Z,1.55
2022-08-26T18:54:00.062Z,2.10
2022-08-26T18:57:41.805Z,1.73
2022-08-26T19:01:27.380Z,1.50
2022-08-26T19:05:10.577Z,2.42
2022-08-26T19:08:54.634Z,2.45
2022-08-26T19:12:37.605Z,2.78
2022-08-26T19:16:20.944Z,3.08
2022-08-26T19:27:28.371Z,2.10
2022-08-26T19:31:31.287Z,2.25
2022-08-26T19:35:13.035Z,2.40
2022-08-26T19:38:58.143Z,2.40
2022-08-26T19:42:39.906Z,1.98
2022-08-26T19:46:23.066Z,2.10
2022-08-26T19:50:09.787Z,2.65
2022-08-26T19:53:52.459Z,2.80
2022-08-26T19:57:35.110Z,2.50
2022-08-26T20:01:17.752Z,2.53
2022-08-26T20:04:59.646Z,2.37
2022-08-26T20:09:00.314Z,2.58
2022-08-26T20:12:42.174Z,2.20
2022-08-26T20:16:23.994Z,1.20
2022-08-26T20:20:33.307Z,1.30
2022-08-26T20:24:17.162Z,1.02
2022-08-26T20:27:59.479Z,1.23
2022-08-26T20:31:44.104Z,1.00
2022-08-26T20:35:25.932Z,1.35
2022-08-26T20:39:08.082Z,2.30
2022-08-26T20:42:49.854Z,1.92
2022-08-26T20:46:31.740Z,1.50
2022-08-26T20:50:14.274Z,1.08
2022-08-26T20:53:56.091Z,1.55
2022-08-26T20:57:37.856Z,1.30
2022-08-26T21:01:58.572Z,1.20
2022-08-26T21:05:40.349Z,1.45
2022-08-26T21:09:23.117Z,1.40
2022-08-26T21:13:04.934Z,1.33
2022-08-26T21:16:46.930Z,1.45
2022-08-26T21:20:29.170Z,1.20
2022-08-26T21:24:11.075Z,1.58
2022-08-26T21:27:52.878Z,1.23
2022-08-26T21:31:35.161Z,1.20
2022-08-26T21:35:17.061Z,1.38
2022-08-26T21:38:59.447Z,1.52
2022-08-26T21:42:41.296Z,1.40
2022-08-26T21:46:23.746Z,2.30
2022-08-26T21:50:29.518Z,2.10
2022-08-26T21:54:11.785Z,1.80
2022-08-26T21:57:53.641Z,1.85
2022-08-26T22:01:56.888Z,1.70
2022-08-26T22:05:45.579Z,1.92
2022-08-26T22:09:28.433Z,1.48
2022-08-26T22:13:10.247Z,2.13
2022-08-26T22:16:52.131Z,1.83
2022-08-26T22:20:34.078Z,1.50
2022-08-26T22:24:17.365Z,1.70
2022-08-26T22:27:59.221Z,2.10
2022-08-26T22:32:01.066Z,1.92
2022-08-26T22:35:44.843Z,1.65
2022-08-26T22:40:05.729Z,1.92
2022-08-26T22:43:47.632Z,2.20
2022-08-26T22:47:29.413Z,1.85
2022-08-26T22:51:13.429Z,1.70
2022-08-26T22:54:55.272Z,1.77
2022-08-26T22:58:37.089Z,1.48
2022-08-26T23:02:19.330Z,1.40
2022-08-26T23:06:01.555Z,1.85
2022-08-26T23:10:21.161Z,1.70
2022-08-26T23:14:06.316Z,1.80
2022-08-26T23:17:57.035Z,1.50
2022-08-26T23:21:42.974Z,1.88
2022-08-26T23:25:24.851Z,2.30
2022-08-26T23:29:08.605Z,2.30
2022-08-26T23:32:50.382Z,2.60
2022-08-26T23:36:34.375Z,3.03
2022-08-26T23:40:19.935Z,2.63
2022-08-26T23:44:05.047Z,2.47
2022-08-26T23:47:47.185Z,2.50
2022-08-26T23:52:07.389Z,2.63
2022-08-26T23:55:51.402Z,2.25
